createdAt,value
2017-08-11T00:00:36.645Z,0
2017-08-11T00:01:36.623Z,0
2017-08-11T00:02:36.356Z,0
2017-08-11T00:03:35.998Z,0
2017-08-11T00:04:35.969Z,0
2017-08-11T00:05:35.641Z,0
2017-08-11T00:06:36.271Z,0
2017-08-11T00:07:36.629Z,0
2017-08-11T00:08:35.916Z,0
2017-08-11T00:09:35.906Z,0
2017-08-11T00:10:36.228Z,0
2017-08-11T00:11:35.899Z,0
2017-08-11T00:12:35.873Z,0
2017-08-11T00:13:36.502Z,0
2017-08-11T00:14:35.854Z,0
2017-08-11T00:15:36.156Z,0
2017-08-11T00:16:35.526Z,0
2017-08-11T00:17:36.451Z,0
2017-08-11T00:18:35.813Z,0
2017-08-11T00:19:36.125Z,0
2017-08-11T00:20:35.155Z,0
2017-08-11T00:21:35.142Z,0
2017-08-11T00:22:35.767Z,0
2017-08-11T00:23:36.102Z,0
2017-08-11T00:24:36.358Z,0
2017-08-11T00:25:36.069Z,0
2017-08-11T00:26:35.763Z,0
2017-08-11T00:27:35.393Z,0
2017-08-11T00:28:35.698Z,0
2017-08-11T00:29:36.301Z,0
2017-08-11T00:30:35.673Z,0
2017-08-11T00:31:35.340Z,0
2017-08-11T00:32:35.956Z,0
2017-08-11T00:33:35.646Z,0
2017-08-11T00:34:35.937Z,0
2017-08-11T00:35:35.959Z,0
2017-08-11T00:36:36.225Z,0
2017-08-11T00:37:35.902Z,0
2017-08-11T00:38:35.584Z,0
2017-08-11T00:39:35.880Z,0
2017-08-11T00:40:35.555Z,0
2017-08-11T00:41:35.545Z,0
2017-08-11T00:42:35.854Z,0
2017-08-11T00:43:35.841Z,0
2017-08-11T00:44:35.504Z,0
2017-08-11T00:45:35.496Z,0
2017-08-11T00:46:36.115Z,0
2017-08-11T00:47:35.474Z,0
2017-08-11T00:48:36.098Z,0
2017-08-11T00:49:35.763Z,0
2017-08-11T00:50:36.068Z,0
2017-08-11T00:51:35.113Z,0
2017-08-11T00:52:36.044Z,0
2017-08-11T00:53:36.069Z,0
2017-08-11T00:54:35.711Z,0
2017-08-11T00:55:35.380Z,0
2017-08-11T00:56:35.710Z,0
2017-08-11T00:57:35.673Z,0
2017-08-11T00:58:35.661Z,0
2017-08-11T00:59:35.643Z,0
2017-08-11T01:00:35.947Z,0
2017-08-11T01:01:36.002Z,0
2017-08-11T01:02:35.608Z,0
2017-08-11T01:03:35.297Z,0
2017-08-11T01:04:35.582Z,0
2017-08-11T01:05:35.890Z,0
2017-08-11T01:06:35.880Z,0
2017-08-11T01:07:34.973Z,0
2017-08-11T01:08:35.865Z,0
2017-08-11T01:09:35.222Z,0
2017-08-11T01:10:35.511Z,0
2017-08-11T01:11:35.823Z,0
2017-08-11T01:12:35.801Z,0
2017-08-11T01:13:35.494Z,0
2017-08-11T01:14:35.160Z,0
2017-08-11T01:15:35.786Z,0
2017-08-11T01:16:35.358Z,0
2017-08-11T01:17:35.441Z,0
2017-08-11T01:18:35.418Z,0
2017-08-11T01:19:35.096Z,0
2017-08-11T01:20:35.399Z,0
2017-08-11T01:21:34.775Z,0
2017-08-11T01:22:35.695Z,0
2017-08-11T01:23:35.369Z,0
2017-08-11T01:24:35.356Z,0
2017-08-11T01:25:35.351Z,0
2017-08-11T01:26:35.647Z,0
2017-08-11T01:27:35.676Z,0
2017-08-11T01:28:35.029Z,0
2017-08-11T01:29:34.668Z,0
2017-08-11T01:30:34.665Z,0
2017-08-11T01:31:35.596Z,0
2017-08-11T01:32:34.947Z,0
2017-08-11T01:33:35.561Z,0
2017-08-11T01:34:35.243Z,0
2017-08-11T01:35:35.539Z,0
2017-08-11T01:36:34.594Z,0
2017-08-11T01:37:35.714Z,0
2017-08-11T01:38:35.190Z,0
2017-08-11T01:39:34.887Z,0
2017-08-11T01:40:35.173Z,0
2017-08-11T01:41:35.468Z,0
2017-08-11T01:42:35.199Z,0
2017-08-11T01:43:34.502Z,0
2017-08-11T01:44:35.430Z,0
2017-08-11T01:45:35.112Z,0
2017-08-11T01:46:35.105Z,0
2017-08-11T01:47:35.411Z,0
2017-08-11T01:48:34.492Z,0
2017-08-11T01:49:35.061Z,0
2017-08-11T01:50:34.743Z,0
2017-08-11T01:51:35.033Z,0
2017-08-11T01:52:35.340Z,0
2017-08-11T01:53:35.330Z,0
2017-08-11T01:54:35.325Z,0
2017-08-11T01:55:35.006Z,0
2017-08-11T01:56:34.382Z,0
2017-08-11T01:57:35.286Z,0
2017-08-11T01:58:34.342Z,0
2017-08-11T01:59:34.947Z,0
2017-08-11T02:00:34.626Z,0
2017-08-11T02:01:34.299Z,0
2017-08-11T02:02:34.907Z,0
2017-08-11T02:03:34.586Z,0
2017-08-11T02:04:34.877Z,0
2017-08-11T02:05:34.559Z,0
2017-08-11T02:06:34.867Z,0
2017-08-11T02:07:34.842Z,0
2017-08-11T02:08:35.162Z,0
2017-08-11T02:09:35.140Z,0
2017-08-11T02:10:34.499Z,0
2017-08-11T02:11:34.492Z,0
2017-08-11T02:12:34.792Z,0
2017-08-11T02:13:34.777Z,0
2017-08-11T02:14:34.505Z,0
2017-08-11T02:15:34.753Z,0
2017-08-11T02:16:35.056Z,0
2017-08-11T02:17:34.730Z,0
2017-08-11T02:18:35.233Z,0
2017-08-11T02:19:34.716Z,0
2017-08-11T02:20:34.695Z,0
2017-08-11T02:21:34.680Z,0
2017-08-11T02:22:34.982Z,0
2017-08-11T02:23:34.347Z,0
2017-08-11T02:24:34.965Z,0
2017-08-11T02:25:34.525Z,0
2017-08-11T02:26:34.015Z,0
2017-08-11T02:27:34.923Z,0
2017-08-11T02:28:34.914Z,0
2017-08-11T02:29:34.582Z,0
2017-08-11T02:30:34.883Z,0
2017-08-11T02:31:34.573Z,0
2017-08-11T02:32:34.874Z,0
2017-08-11T02:33:34.546Z,0
2017-08-11T02:34:34.537Z,0
2017-08-11T02:35:34.832Z,0
2017-08-11T02:36:34.500Z,0
2017-08-11T02:37:34.499Z,0
2017-08-11T02:38:34.482Z,0
2017-08-11T02:39:34.467Z,0
2017-08-11T02:40:34.453Z,0
2017-08-11T02:41:33.817Z,0
2017-08-11T02:42:34.756Z,0
2017-08-11T02:43:34.110Z,0
2017-08-11T02:44:33.787Z,0
2017-08-11T02:45:34.712Z,0
2017-08-11T02:46:34.695Z,0
2017-08-11T02:47:34.059Z,0
2017-08-11T02:48:34.674Z,0
2017-08-11T02:49:34.346Z,0
2017-08-11T02:50:34.339Z,0
2017-08-11T02:51:34.067Z,0
2017-08-11T02:52:34.309Z,0
2017-08-11T02:53:33.999Z,0
2017-08-11T02:54:33.979Z,0
2017-08-11T02:55:33.982Z,0
2017-08-11T02:56:33.643Z,0
2017-08-11T02:57:34.256Z,0
2017-08-11T02:58:34.244Z,0
2017-08-11T02:59:33.917Z,0
2017-08-11T03:00:34.576Z,0
2017-08-11T03:01:34.197Z,0
2017-08-11T03:02:34.490Z,0
2017-08-11T03:03:33.873Z,0
2017-08-11T03:04:33.851Z,0
2017-08-11T03:05:33.888Z,0
2017-08-11T03:06:33.825Z,0
2017-08-11T03:07:34.439Z,0
2017-08-11T03:08:33.800Z,0
2017-08-11T03:09:33.786Z,0
2017-08-11T03:10:33.831Z,0
2017-08-11T03:11:33.771Z,0
2017-08-11T03:12:34.378Z,0
2017-08-11T03:13:34.073Z,0
2017-08-11T03:14:34.356Z,0
2017-08-11T03:15:34.034Z,0
2017-08-11T03:16:33.710Z,0
2017-08-11T03:17:34.020Z,0
2017-08-11T03:18:33.061Z,0
2017-08-11T03:19:34.002Z,0
2017-08-11T03:20:34.059Z,0
2017-08-11T03:21:34.271Z,0
2017-08-11T03:22:34.256Z,0
2017-08-11T03:23:33.639Z,0
2017-08-11T03:24:33.613Z,0
2017-08-11T03:25:33.290Z,0
2017-08-11T03:26:33.280Z,0
2017-08-11T03:27:33.887Z,0
2017-08-11T03:28:33.566Z,0
2017-08-11T03:29:33.555Z,0
2017-08-11T03:30:33.867Z,0
2017-08-11T03:31:33.842Z,0
2017-08-11T03:32:33.832Z,0
2017-08-11T03:33:33.500Z,0
2017-08-11T03:34:33.486Z,0
2017-08-11T03:35:33.485Z,0
2017-08-11T03:36:33.473Z,0
2017-08-11T03:37:33.683Z,0
2017-08-11T03:38:33.441Z,0
2017-08-11T03:39:33.766Z,0
2017-08-11T03:40:33.453Z,0
2017-08-11T03:41:33.141Z,0
2017-08-11T03:42:34.019Z,0
2017-08-11T03:43:33.381Z,0
2017-08-11T03:44:33.690Z,0
2017-08-11T03:45:33.350Z,0
2017-08-11T03:46:33.989Z,0
2017-08-11T03:47:33.971Z,0
2017-08-11T03:48:33.634Z,0
2017-08-11T03:49:33.311Z,0
2017-08-11T03:50:33.610Z,0
2017-08-11T03:51:33.292Z,0
2017-08-11T03:52:33.594Z,0
2017-08-11T03:53:33.574Z,0
2017-08-11T03:54:33.559Z,0
2017-08-11T03:55:33.574Z,0
2017-08-11T03:56:32.592Z,0
2017-08-11T03:57:33.521Z,0
2017-08-11T03:58:33.510Z,0
2017-08-11T03:59:33.202Z,0
2017-08-11T04:00:33.484Z,0
2017-08-11T04:01:33.798Z,0
2017-08-11T04:02:33.149Z,0
2017-08-11T04:03:33.455Z,0
2017-08-11T04:04:33.762Z,0
2017-08-11T04:05:32.821Z,0
2017-08-11T04:06:33.726Z,0
2017-08-11T04:07:33.744Z,0
2017-08-11T04:08:33.387Z,0
2017-08-11T04:09:33.688Z,0
2017-08-11T04:10:33.077Z,0
2017-08-11T04:11:33.677Z,0
2017-08-11T04:12:33.341Z,0
2017-08-11T04:13:33.015Z,0
2017-08-11T04:14:32.688Z,0
2017-08-11T04:15:33.002Z,0
2017-08-11T04:16:33.658Z,0
2017-08-11T04:17:33.282Z,0
2017-08-11T04:18:33.268Z,0
2017-08-11T04:19:32.946Z,0
2017-08-11T04:20:32.933Z,0
2017-08-11T04:21:33.540Z,0
2017-08-11T04:22:33.524Z,0
2017-08-11T04:23:32.595Z,0
2017-08-11T04:24:33.195Z,0
2017-08-11T04:25:33.179Z,0
2017-08-11T04:26:33.552Z,0
2017-08-11T04:27:33.469Z,0
2017-08-11T04:28:32.836Z,0
2017-08-11T04:29:33.128Z,0
2017-08-11T04:30:33.430Z,0
2017-08-11T04:31:33.420Z,0
2017-08-11T04:32:32.830Z,0
2017-08-11T04:33:33.082Z,0
2017-08-11T04:34:32.454Z,0
2017-08-11T04:35:33.071Z,0
2017-08-11T04:36:33.055Z,0
2017-08-11T04:37:32.406Z,0
2017-08-11T04:38:33.033Z,0
2017-08-11T04:39:32.698Z,0
2017-08-11T04:40:33.025Z,5
2017-08-11T04:41:32.985Z,5
2017-08-11T04:42:32.971Z,5
2017-08-11T04:43:33.271Z,5
2017-08-11T04:44:33.299Z,5
2017-08-11T04:45:32.310Z,5
2017-08-11T04:46:32.928Z,5
2017-08-11T04:47:32.600Z,5
2017-08-11T04:48:32.586Z,5
2017-08-11T04:49:33.194Z,5
2017-08-11T04:50:32.876Z,5
2017-08-11T04:51:32.854Z,5
2017-08-11T04:52:32.907Z,10
2017-08-11T04:53:32.838Z,10
2017-08-11T04:54:32.518Z,5
2017-08-11T04:55:32.496Z,5
2017-08-11T04:56:32.490Z,10
2017-08-11T04:57:33.102Z,10
2017-08-11T04:58:32.795Z,10
2017-08-11T04:59:32.146Z,10
2017-08-11T05:00:33.069Z,10
2017-08-11T05:01:32.424Z,10
2017-08-11T05:02:32.728Z,5
2017-08-11T05:03:32.097Z,5
2017-08-11T05:04:32.701Z,5
2017-08-11T05:05:32.069Z,10
2017-08-11T05:06:32.996Z,10
2017-08-11T05:07:32.404Z,10
2017-08-11T05:08:32.058Z,10
2017-08-11T05:09:32.342Z,10
2017-08-11T05:10:32.634Z,10
2017-08-11T05:11:32.624Z,10
2017-08-11T05:12:32.310Z,10
2017-08-11T05:13:31.975Z,10
2017-08-11T05:14:32.271Z,10
2017-08-11T05:15:31.948Z,10
2017-08-11T05:16:32.242Z,10
2017-08-11T05:17:32.634Z,10
2017-08-11T05:18:32.544Z,10
2017-08-11T05:19:31.925Z,15
2017-08-11T05:20:32.512Z,15
2017-08-11T05:21:32.521Z,15
2017-08-11T05:22:32.171Z,20
2017-08-11T05:23:31.844Z,20
2017-08-11T05:24:32.158Z,25
2017-08-11T05:25:32.445Z,25
2017-08-11T05:26:32.764Z,25
2017-08-11T05:27:32.435Z,25
2017-08-11T05:28:32.414Z,25
2017-08-11T05:29:32.409Z,25
2017-08-11T05:30:32.079Z,25
2017-08-11T05:31:32.061Z,25
2017-08-11T05:32:32.060Z,25
2017-08-11T05:33:32.672Z,20
2017-08-11T05:34:32.651Z,20
2017-08-11T05:35:32.021Z,20
2017-08-11T05:36:32.630Z,20
2017-08-11T05:37:32.868Z,25
2017-08-11T05:38:31.970Z,25
2017-08-11T05:39:31.990Z,25
2017-08-11T05:40:32.597Z,20
2017-08-11T05:41:32.253Z,20
2017-08-11T05:42:31.937Z,25
2017-08-11T05:43:31.923Z,25
2017-08-11T05:44:32.542Z,25
2017-08-11T05:45:32.219Z,30
2017-08-11T05:46:32.191Z,30
2017-08-11T05:47:31.872Z,30
2017-08-11T05:48:32.476Z,30
2017-08-11T05:49:31.866Z,30
2017-08-11T05:50:32.157Z,30
2017-08-11T05:51:32.443Z,25
2017-08-11T05:52:32.130Z,25
2017-08-11T05:53:31.492Z,20
2017-08-11T05:54:31.475Z,20
2017-08-11T05:55:31.463Z,15
2017-08-11T05:56:32.081Z,15
2017-08-11T05:57:32.064Z,15
2017-08-11T05:58:32.055Z,15
2017-08-11T05:59:31.729Z,15
2017-08-11T06:00:32.340Z,10
2017-08-11T06:01:32.323Z,10
2017-08-11T06:02:32.317Z,10
2017-08-11T06:03:31.690Z,10
2017-08-11T06:04:31.982Z,10
2017-08-11T06:05:31.669Z,10
2017-08-11T06:06:31.956Z,10
2017-08-11T06:07:31.641Z,15
2017-08-11T06:08:31.614Z,15
2017-08-11T06:09:31.916Z,15
2017-08-11T06:10:31.597Z,15
2017-08-11T06:11:31.901Z,15
2017-08-11T06:12:31.888Z,20
2017-08-11T06:13:31.875Z,20
2017-08-11T06:14:31.228Z,25
2017-08-11T06:15:31.846Z,25
2017-08-11T06:16:32.153Z,30
2017-08-11T06:17:31.866Z,35
2017-08-11T06:18:31.808Z,35
2017-08-11T06:19:31.206Z,40
2017-08-11T06:20:31.793Z,40
2017-08-11T06:21:32.096Z,40
2017-08-11T06:22:31.826Z,40
2017-08-11T06:23:31.434Z,45
2017-08-11T06:24:31.425Z,45
2017-08-11T06:25:31.726Z,45
2017-08-11T06:26:31.085Z,45
2017-08-11T06:27:31.080Z,45
2017-08-11T06:28:31.724Z,50
2017-08-11T06:29:31.681Z,50
2017-08-11T06:30:31.665Z,50
2017-08-11T06:31:31.342Z,55
2017-08-11T06:32:31.687Z,60
2017-08-11T06:33:31.008Z,65
2017-08-11T06:34:30.685Z,70
2017-08-11T06:35:31.938Z,75
2017-08-11T06:36:31.604Z,75
2017-08-11T06:37:31.894Z,80
2017-08-11T06:38:31.579Z,80
2017-08-11T06:39:31.586Z,85
2017-08-11T06:40:31.870Z,85
2017-08-11T06:41:31.566Z,85
2017-08-11T06:42:31.893Z,85
2017-08-11T06:43:31.538Z,85
2017-08-11T06:44:31.515Z,85
2017-08-11T06:45:31.811Z,80
2017-08-11T06:46:31.169Z,75
2017-08-11T06:47:30.845Z,75
2017-08-11T06:48:31.153Z,75
2017-08-11T06:49:31.136Z,75
2017-08-11T06:50:31.119Z,75
2017-08-11T06:51:30.809Z,75
2017-08-11T06:52:31.108Z,75
2017-08-11T06:53:31.768Z,75
2017-08-11T06:54:31.077Z,70
2017-08-11T06:55:31.742Z,60
2017-08-11T06:56:31.074Z,55
2017-08-11T06:57:31.051Z,50
2017-08-11T06:58:31.346Z,50
2017-08-11T06:59:31.028Z,50
2017-08-11T07:00:31.319Z,50
2017-08-11T07:01:31.000Z,50
2017-08-11T07:02:31.304Z,55
2017-08-11T07:03:31.298Z,50
2017-08-11T07:04:31.278Z,50
2017-08-11T07:05:30.959Z,50
2017-08-11T07:06:31.260Z,50
2017-08-11T07:07:31.241Z,50
2017-08-11T07:08:30.915Z,55
2017-08-11T07:09:30.917Z,60
2017-08-11T07:10:31.523Z,55
2017-08-11T07:11:31.199Z,50
2017-08-11T07:12:31.192Z,55
2017-08-11T07:13:31.169Z,60
2017-08-11T07:14:31.164Z,55
2017-08-11T07:15:30.836Z,55
2017-08-11T07:16:30.836Z,50
2017-08-11T07:17:30.837Z,55
2017-08-11T07:18:31.122Z,60
2017-08-11T07:19:30.481Z,60
2017-08-11T07:20:30.789Z,55
2017-08-11T07:21:31.082Z,60
2017-08-11T07:22:31.072Z,55
2017-08-11T07:23:31.124Z,55
2017-08-11T07:24:31.054Z,60
2017-08-11T07:25:30.726Z,65
2017-08-11T07:26:30.717Z,60
2017-08-11T07:27:31.338Z,65
2017-08-11T07:28:31.005Z,65
2017-08-11T07:29:30.684Z,70
2017-08-11T07:30:30.670Z,65
2017-08-11T07:31:31.301Z,65
2017-08-11T07:32:30.982Z,70
2017-08-11T07:33:30.639Z,75
2017-08-11T07:34:30.621Z,75
2017-08-11T07:35:30.627Z,75
2017-08-11T07:36:30.604Z,65
2017-08-11T07:37:31.430Z,65
2017-08-11T07:38:30.897Z,70
2017-08-11T07:39:30.881Z,70
2017-08-11T07:40:30.876Z,70
2017-08-11T07:41:30.549Z,70
2017-08-11T07:42:30.538Z,75
2017-08-11T07:43:31.147Z,80
2017-08-11T07:44:30.836Z,80
2017-08-11T07:45:30.817Z,80
2017-08-11T07:46:31.113Z,80
2017-08-11T07:47:31.099Z,75
2017-08-11T07:48:31.100Z,75
2017-08-11T07:49:31.084Z,70
2017-08-11T07:50:30.769Z,70
2017-08-11T07:51:30.121Z,65
2017-08-11T07:52:30.757Z,60
2017-08-11T07:53:30.757Z,60
2017-08-11T07:54:30.714Z,55
2017-08-11T07:55:31.019Z,55
2017-08-11T07:56:30.078Z,60
2017-08-11T07:57:30.368Z,70
2017-08-11T07:58:30.362Z,70
2017-08-11T07:59:30.357Z,70
2017-08-11T08:00:30.336Z,70
2017-08-11T08:01:30.047Z,65
2017-08-11T08:02:30.311Z,65
2017-08-11T08:03:30.924Z,65
2017-08-11T08:04:30.602Z,55
2017-08-11T08:05:31.118Z,65
2017-08-11T08:06:30.579Z,65
2017-08-11T08:07:30.257Z,75
2017-08-11T08:08:30.250Z,65
2017-08-11T08:09:30.862Z,75
2017-08-11T08:10:30.228Z,65
2017-08-11T08:11:30.218Z,70
2017-08-11T08:12:30.511Z,80
2017-08-11T08:13:30.186Z,85
2017-08-11T08:14:29.872Z,85
2017-08-11T08:15:30.179Z,85
2017-08-11T08:16:30.467Z,95
2017-08-11T08:17:30.456Z,100
2017-08-11T08:18:30.135Z,80
2017-08-11T08:19:30.121Z,85
2017-08-11T08:20:29.795Z,85
2017-08-11T08:21:30.408Z,90
2017-08-11T08:22:30.721Z,90
2017-08-11T08:23:30.077Z,90
2017-08-11T08:24:30.439Z,80
2017-08-11T08:25:30.088Z,85
2017-08-11T08:26:30.673Z,95
2017-08-11T08:27:30.036Z,95
2017-08-11T08:28:30.327Z,85
2017-08-11T08:29:30.317Z,90
2017-08-11T08:30:30.001Z,110
2017-08-11T08:31:30.298Z,110
2017-08-11T08:32:29.975Z,85
2017-08-11T08:33:30.283Z,100
2017-08-11T08:34:30.262Z,105
2017-08-11T08:35:30.252Z,95
2017-08-11T08:36:30.247Z,100
2017-08-11T08:37:29.926Z,95
2017-08-11T08:38:29.906Z,110
2017-08-11T08:39:30.216Z,110
2017-08-11T08:40:29.886Z,120
2017-08-11T08:41:30.538Z,135
2017-08-11T08:42:30.179Z,115
2017-08-11T08:43:30.170Z,105
2017-08-11T08:44:29.842Z,95
2017-08-11T08:45:29.832Z,110
2017-08-11T08:46:30.152Z,135
2017-08-11T08:47:29.803Z,140
2017-08-11T08:48:30.426Z,145
2017-08-11T08:49:29.793Z,120
2017-08-11T08:50:30.427Z,115
2017-08-11T08:51:30.073Z,130
2017-08-11T08:52:29.743Z,165
2017-08-11T08:53:30.067Z,155
2017-08-11T08:54:30.362Z,150
2017-08-11T08:55:30.030Z,160
2017-08-11T08:56:29.707Z,190
2017-08-11T08:57:30.317Z,200
2017-08-11T08:58:29.996Z,200
2017-08-11T08:59:29.990Z,210
2017-08-11T09:00:29.978Z,220
2017-08-11T09:01:29.353Z,220
2017-08-11T09:02:30.271Z,220
2017-08-11T09:03:29.633Z,210
2017-08-11T09:04:29.932Z,175
2017-08-11T09:05:29.928Z,135
2017-08-11T09:06:29.597Z,155
2017-08-11T09:07:29.904Z,145
2017-08-11T09:08:29.323Z,145
2017-08-11T09:09:29.575Z,150
2017-08-11T09:10:29.558Z,135
2017-08-11T09:11:29.867Z,120
2017-08-11T09:12:30.162Z,130
2017-08-11T09:13:29.531Z,135
2017-08-11T09:14:30.146Z,150
2017-08-11T09:15:30.138Z,160
2017-08-11T09:16:29.812Z,160
2017-08-11T09:17:29.501Z,150
2017-08-11T09:18:29.790Z,130
2017-08-11T09:19:29.473Z,130
2017-08-11T09:20:30.080Z,145
2017-08-11T09:21:29.766Z,145
2017-08-11T09:22:30.068Z,135
2017-08-11T09:23:30.055Z,130
2017-08-11T09:24:29.422Z,120
2017-08-11T09:25:29.736Z,115
2017-08-11T09:26:29.713Z,110
2017-08-11T09:27:29.077Z,95
2017-08-11T09:28:29.691Z,110
2017-08-11T09:29:29.727Z,105
2017-08-11T09:30:29.361Z,90
2017-08-11T09:31:29.353Z,100
2017-08-11T09:32:29.857Z,100
2017-08-11T09:33:29.646Z,100
2017-08-11T09:34:29.946Z,105
2017-08-11T09:35:29.310Z,120
2017-08-11T09:36:29.294Z,130
2017-08-11T09:37:29.802Z,135
2017-08-11T09:38:29.276Z,145
2017-08-11T09:39:29.585Z,155
2017-08-11T09:40:29.251Z,135
2017-08-11T09:41:29.557Z,115
2017-08-11T09:42:29.548Z,95
2017-08-11T09:43:29.225Z,90
2017-08-11T09:44:29.213Z,95
2017-08-11T09:45:29.513Z,95
2017-08-11T09:46:29.825Z,100
2017-08-11T09:47:29.186Z,90
2017-08-11T09:48:29.487Z,95
2017-08-11T09:49:29.473Z,90
2017-08-11T09:50:29.152Z,80
2017-08-11T09:51:29.783Z,85
2017-08-11T09:52:29.454Z,90
2017-08-11T09:53:29.130Z,90
2017-08-11T09:54:29.108Z,95
2017-08-11T09:55:28.853Z,105
2017-08-11T09:56:29.410Z,110
2017-08-11T09:57:29.076Z,105
2017-08-11T09:58:29.387Z,100
2017-08-11T09:59:29.423Z,90
2017-08-11T10:00:29.061Z,80
2017-08-11T10:01:29.661Z,65
2017-08-11T10:02:29.033Z,70
2017-08-11T10:03:29.646Z,70
2017-08-11T10:04:29.003Z,75
2017-08-11T10:05:28.998Z,70
2017-08-11T10:06:29.304Z,70
2017-08-11T10:07:28.663Z,70
2017-08-11T10:08:28.684Z,75
2017-08-11T10:09:29.284Z,75
2017-08-11T10:10:28.638Z,80
2017-08-11T10:11:29.571Z,75
2017-08-11T10:12:28.929Z,75
2017-08-11T10:13:28.920Z,75
2017-08-11T10:14:28.650Z,80
2017-08-11T10:15:29.213Z,85
2017-08-11T10:16:28.889Z,90
2017-08-11T10:17:29.185Z,90
2017-08-11T10:18:29.168Z,90
2017-08-11T10:19:29.530Z,90
2017-08-11T10:20:29.159Z,90
2017-08-11T10:21:29.453Z,95
2017-08-11T10:22:29.141Z,110
2017-08-11T10:23:29.121Z,125
2017-08-11T10:24:29.675Z,140
2017-08-11T10:25:29.107Z,155
2017-08-11T10:26:28.480Z,175
2017-08-11T10:27:29.152Z,205
2017-08-11T10:28:29.088Z,220
2017-08-11T10:29:28.762Z,240
2017-08-11T10:30:28.433Z,225
2017-08-11T10:31:28.727Z,225
2017-08-11T10:32:28.724Z,215
2017-08-11T10:33:28.744Z,180
2017-08-11T10:34:29.015Z,180
2017-08-11T10:35:29.010Z,175
2017-08-11T10:36:29.302Z,175
2017-08-11T10:37:28.979Z,155
2017-08-11T10:38:28.984Z,170
2017-08-11T10:39:29.276Z,165
2017-08-11T10:40:28.950Z,140
2017-08-11T10:41:28.962Z,130
2017-08-11T10:42:28.930Z,135
2017-08-11T10:43:28.919Z,160
2017-08-11T10:44:28.913Z,150
2017-08-11T10:45:28.911Z,145
2017-08-11T10:46:28.580Z,140
2017-08-11T10:47:28.331Z,115
2017-08-11T10:48:28.972Z,100
2017-08-11T10:49:28.554Z,100
2017-08-11T10:50:28.842Z,100
2017-08-11T10:51:29.210Z,105
2017-08-11T10:52:27.899Z,100
2017-08-11T10:53:28.896Z,95
2017-08-11T10:54:28.554Z,85
2017-08-11T10:55:28.493Z,75
2017-08-11T10:56:28.796Z,60
2017-08-11T10:57:28.782Z,55
2017-08-11T10:58:28.462Z,60
2017-08-11T10:59:28.169Z,65
2017-08-11T11:00:28.454Z,65
2017-08-11T11:01:28.801Z,80
2017-08-11T11:02:28.738Z,100
2017-08-11T11:03:28.772Z,105
2017-08-11T11:04:28.399Z,90
2017-08-11T11:05:28.707Z,80
2017-08-11T11:06:29.009Z,65
2017-08-11T11:07:28.682Z,60
2017-08-11T11:08:28.046Z,55
2017-08-11T11:09:28.669Z,50
2017-08-11T11:10:28.341Z,45
2017-08-11T11:11:28.653Z,40
2017-08-11T11:12:28.323Z,40
2017-08-11T11:13:28.002Z,40
2017-08-11T11:14:28.617Z,35
2017-08-11T11:15:28.605Z,35
2017-08-11T11:16:28.898Z,30
2017-08-11T11:17:28.272Z,30
2017-08-11T11:18:27.945Z,30
2017-08-11T11:19:28.562Z,25
2017-08-11T11:20:28.240Z,25
2017-08-11T11:21:28.224Z,25
2017-08-11T11:22:28.519Z,25
2017-08-11T11:23:27.897Z,25
2017-08-11T11:24:28.207Z,25
2017-08-11T11:25:28.506Z,25
2017-08-11T11:26:28.802Z,25
2017-08-11T11:27:28.479Z,30
2017-08-11T11:28:28.464Z,35
2017-08-11T11:29:28.769Z,40
2017-08-11T11:30:28.450Z,40
2017-08-11T11:31:28.755Z,40
2017-08-11T11:32:28.424Z,45
2017-08-11T11:33:28.728Z,40
2017-08-11T11:34:28.409Z,45
2017-08-11T11:35:28.757Z,40
2017-08-11T11:36:28.070Z,40
2017-08-11T11:37:28.781Z,50
2017-08-11T11:38:28.674Z,50
2017-08-11T11:39:28.667Z,55
2017-08-11T11:40:27.718Z,60
2017-08-11T11:41:28.333Z,55
2017-08-11T11:42:28.321Z,55
2017-08-11T11:43:28.309Z,55
2017-08-11T11:44:28.301Z,50
2017-08-11T11:45:27.995Z,50
2017-08-11T11:46:28.607Z,50
2017-08-11T11:47:28.272Z,55
2017-08-11T11:48:27.942Z,55
2017-08-11T11:49:28.245Z,55
2017-08-11T11:50:28.805Z,55
2017-08-11T11:51:28.229Z,60
2017-08-11T11:52:28.571Z,65
2017-08-11T11:53:27.578Z,70
2017-08-11T11:54:27.940Z,70
2017-08-11T11:55:28.186Z,70
2017-08-11T11:56:28.171Z,70
2017-08-11T11:57:27.852Z,70
2017-08-11T11:58:27.526Z,65
2017-08-11T11:59:28.142Z,65
2017-08-11T12:00:27.859Z,65
2017-08-11T12:01:28.123Z,65
2017-08-11T12:02:27.174Z,65
2017-08-11T12:03:27.791Z,65
2017-08-11T12:04:28.090Z,65
2017-08-11T12:05:28.390Z,65
2017-08-11T12:06:28.068Z,60
2017-08-11T12:07:28.049Z,60
2017-08-11T12:08:28.039Z,60
2017-08-11T12:09:27.419Z,55
2017-08-11T12:10:28.027Z,55
2017-08-11T12:11:28.007Z,55
2017-08-11T12:12:28.316Z,50
2017-08-11T12:13:27.995Z,50
2017-08-11T12:14:27.674Z,50
2017-08-11T12:15:27.970Z,50
2017-08-11T12:16:28.022Z,45
2017-08-11T12:17:27.980Z,45
2017-08-11T12:18:28.252Z,45
2017-08-11T12:19:27.616Z,40
2017-08-11T12:20:28.238Z,40
2017-08-11T12:21:28.215Z,40
2017-08-11T12:22:27.587Z,40
2017-08-11T12:23:27.885Z,35
2017-08-11T12:24:28.188Z,35
2017-08-11T12:25:28.185Z,40
2017-08-11T12:26:27.539Z,50
2017-08-11T12:27:27.846Z,55
2017-08-11T12:28:27.839Z,55
2017-08-11T12:29:27.513Z,55
2017-08-11T12:30:27.493Z,60
2017-08-11T12:31:27.488Z,60
2017-08-11T12:32:26.849Z,60
2017-08-11T12:33:27.783Z,65
2017-08-11T12:34:27.456Z,65
2017-08-11T12:35:27.129Z,65
2017-08-11T12:36:27.434Z,65
2017-08-11T12:37:27.452Z,70
2017-08-11T12:38:28.034Z,70
2017-08-11T12:39:27.715Z,80
2017-08-11T12:40:27.700Z,85
2017-08-11T12:41:27.687Z,85
2017-08-11T12:42:27.999Z,80
2017-08-11T12:43:27.362Z,70
2017-08-11T12:44:27.664Z,55
2017-08-11T12:45:27.334Z,50
2017-08-11T12:46:27.692Z,45
2017-08-11T12:47:27.627Z,35
2017-08-11T12:48:27.624Z,30
2017-08-11T12:49:27.927Z,25
2017-08-11T12:50:27.612Z,25
2017-08-11T12:51:26.962Z,25
2017-08-11T12:52:27.890Z,25
2017-08-11T12:53:27.568Z,20
2017-08-11T12:54:27.549Z,20
2017-08-11T12:55:27.552Z,20
2017-08-11T12:56:27.540Z,20
2017-08-11T12:57:27.212Z,15
2017-08-11T12:58:27.828Z,15
2017-08-11T12:59:27.194Z,10
2017-08-11T13:00:27.811Z,10
2017-08-11T13:01:27.182Z,10
2017-08-11T13:02:27.161Z,15
2017-08-11T13:03:27.773Z,15
2017-08-11T13:04:26.828Z,20
2017-08-11T13:05:27.125Z,25
2017-08-11T13:06:27.447Z,25
2017-08-11T13:07:26.793Z,25
2017-08-11T13:08:27.406Z,25
2017-08-11T13:09:27.087Z,25
2017-08-11T13:10:27.387Z,25
2017-08-11T13:11:27.386Z,25
2017-08-11T13:12:27.371Z,25
2017-08-11T13:13:27.354Z,25
2017-08-11T13:14:27.027Z,25
2017-08-11T13:15:27.332Z,25
2017-08-11T13:16:27.633Z,25
2017-08-11T13:17:26.690Z,20
2017-08-11T13:18:27.301Z,20
2017-08-11T13:19:26.977Z,20
2017-08-11T13:20:27.281Z,20
2017-08-11T13:21:27.584Z,20
2017-08-11T13:22:27.275Z,20
2017-08-11T13:23:27.253Z,20
2017-08-11T13:24:26.920Z,20
2017-08-11T13:25:26.902Z,25
2017-08-11T13:26:26.905Z,25
2017-08-11T13:27:27.203Z,30
2017-08-11T13:28:26.881Z,35
2017-08-11T13:29:26.878Z,40
2017-08-11T13:30:27.480Z,45
2017-08-11T13:31:27.152Z,45
2017-08-11T13:32:26.877Z,45
2017-08-11T13:33:27.142Z,45
2017-08-11T13:34:26.812Z,45
2017-08-11T13:35:26.485Z,45
2017-08-11T13:36:27.109Z,45
2017-08-11T13:37:27.117Z,45
2017-08-11T13:38:27.010Z,45
2017-08-11T13:39:26.436Z,45
2017-08-11T13:40:26.740Z,45
2017-08-11T13:41:26.736Z,50
2017-08-11T13:42:27.030Z,50
2017-08-11T13:43:26.712Z,55
2017-08-11T13:44:27.024Z,55
2017-08-11T13:45:26.994Z,55
2017-08-11T13:46:26.683Z,55
2017-08-11T13:47:26.978Z,55
2017-08-11T13:48:26.656Z,50
2017-08-11T13:49:26.653Z,45
2017-08-11T13:50:26.638Z,45
2017-08-11T13:51:26.619Z,45
2017-08-11T13:52:27.237Z,40
2017-08-11T13:53:26.926Z,40
2017-08-11T13:54:25.968Z,40
2017-08-11T13:55:26.578Z,40
2017-08-11T13:56:26.877Z,40
2017-08-11T13:57:26.874Z,40
2017-08-11T13:58:26.848Z,45
2017-08-11T13:59:26.851Z,45
2017-08-11T14:00:26.835Z,45
2017-08-11T14:01:26.505Z,45
2017-08-11T14:02:26.823Z,50
2017-08-11T14:03:26.168Z,50
2017-08-11T14:04:27.099Z,50
2017-08-11T14:05:26.462Z,55
2017-08-11T14:06:26.457Z,55
2017-08-11T14:07:27.068Z,60
2017-08-11T14:08:26.742Z,60
2017-08-11T14:09:26.418Z,55
2017-08-11T14:10:26.731Z,45
2017-08-11T14:11:26.081Z,50
2017-08-11T14:12:26.707Z,60
2017-08-11T14:13:26.695Z,60
2017-08-11T14:14:26.363Z,50
2017-08-11T14:15:26.356Z,45
2017-08-11T14:16:26.030Z,45
2017-08-11T14:17:26.041Z,40
2017-08-11T14:18:26.322Z,35
2017-08-11T14:19:26.623Z,35
2017-08-11T14:20:26.613Z,35
2017-08-11T14:21:26.602Z,30
2017-08-11T14:22:25.651Z,30